Newton, Massachusetts
Current Conditions -  °F | °C
As of 3:03 AM on Friday 24 Oct 2014 (Local Time) from KBED Reporting Station
Light Rain Light Rain  
Wind Chill: 46°   Ceiling: 900
Heat Index: 49°   Visibility: 6mi
Dew Point: 47°   Wind: 7mph
Humidity: 93%   Direction: 320°NW
Pressure: 29.66"   Gusts: NA
Location:  42.34°N, 71.21°W
Report Text: KBED 240703Z AUTO 32006KT 6SM -RA BR BKN009 OVC017 09/08 A2966 RMK AO2 P0000 T00940083 TSNO
Loading
Personal Weather Stations






























Interactive Weather Map
Tropical Storm Tracking
New forecast layout! Learn more

10-Day Weather Forecast

Advertisements
Track Severe Weather on mobile